createdAt,value
2019-05-16T10:55:57.109Z,19.38
2019-05-16T10:58:37.226Z,20.24
2019-05-16T11:01:19.586Z,18.30
2019-05-16T11:03:39.033Z,17.96
2019-05-16T11:06:24.680Z,18.71
2019-05-16T11:08:46.610Z,19.00
2019-05-16T11:11:22.549Z,19.24
2019-05-16T11:13:55.308Z,19.51
2019-05-16T11:16:27.815Z,19.81
2019-05-16T11:19:14.285Z,19.81
2019-05-16T11:21:37.550Z,20.38
2019-05-16T11:24:12.464Z,20.18
2019-05-16T11:26:43.727Z,19.48
2019-05-16T11:29:17.241Z,19.76
2019-05-16T11:31:49.601Z,19.60
2019-05-16T11:34:22.272Z,19.29
2019-05-16T11:36:54.239Z,21.51
2019-05-16T11:39:26.666Z,21.51
2019-05-16T11:41:59.428Z,20.63
2019-05-16T11:44:31.863Z,20.21
2019-05-16T11:47:08.246Z,19.68
2019-05-16T11:49:41.297Z,19.61
2019-05-16T11:52:14.325Z,19.22
2019-05-16T11:54:46.894Z,19.22
2019-05-16T11:57:21.301Z,19.72
2019-05-16T11:59:56.702Z,18.30
2019-05-16T12:02:28.223Z,18.30
2019-05-16T12:05:00.785Z,20.45
2019-05-16T12:07:34.887Z,20.45
2019-05-16T12:10:10.459Z,20.18
2019-05-16T12:12:43.392Z,20.51
2019-05-16T12:15:19.962Z,20.50
2019-05-16T12:18:00.724Z,20.50
2019-05-16T12:20:27.422Z,21.42
2019-05-16T12:23:00.328Z,21.42
2019-05-16T12:25:32.641Z,22.25
2019-05-16T12:28:07.883Z,22.44
2019-05-16T12:30:42.639Z,22.64
2019-05-16T12:33:18.345Z,22.36
2019-05-16T12:35:49.538Z,22.56
2019-05-16T12:38:22.326Z,21.38
2019-05-16T12:40:56.525Z,22.32
2019-05-16T12:43:44.556Z,21.45
2019-05-16T12:46:07.435Z,21.74
2019-05-16T12:48:39.887Z,20.99
2019-05-16T12:51:12.433Z,20.99
2019-05-16T12:53:47.509Z,21.31
2019-05-16T12:56:19.349Z,21.85
2019-05-16T12:58:51.845Z,22.66
2019-05-16T13:01:30.731Z,22.66
2019-05-16T13:03:57.869Z,22.45
2019-05-16T13:06:30.305Z,22.45
2019-05-16T13:09:02.249Z,22.45
2019-05-16T13:11:37.542Z,22.45
2019-05-16T13:14:11.248Z,22.65
2019-05-16T13:16:47.102Z,20.70
2019-05-16T13:19:19.291Z,20.70
2019-05-16T13:21:52.773Z,20.05
2019-05-16T13:24:27.841Z,20.05
2019-05-16T13:27:00.298Z,20.28
2019-05-16T13:29:32.812Z,18.99
2019-05-16T13:32:07.691Z,18.99
2019-05-16T13:34:40.458Z,19.24
2019-05-16T13:37:13.163Z,19.71
2019-05-16T13:39:47.635Z,21.27
2019-05-16T13:42:19.821Z,22.25
2019-05-16T13:44:52.342Z,22.25
2019-05-16T13:47:26.846Z,22.59
2019-05-16T13:49:59.047Z,22.59
2019-05-16T13:52:31.609Z,20.51
2019-05-16T13:55:08.355Z,20.62
2019-05-16T13:57:41.850Z,21.07
2019-05-16T14:00:20.688Z,21.07
2019-05-16T14:02:52.549Z,20.89
2019-05-16T14:06:11.619Z,20.82
2019-05-16T14:11:59.065Z,22.54
2019-05-16T14:51:12.293Z,19.16
2019-05-16T14:53:46.922Z,19.60
2019-05-16T14:56:19.370Z,19.44
2019-05-16T14:58:52.341Z,19.44
2019-05-16T15:01:26.711Z,19.34
2019-05-16T15:03:59.561Z,19.34
2019-05-16T15:06:37.276Z,19.11
2019-05-16T15:09:10.271Z,18.76
2019-05-16T15:11:43.019Z,19.18
2019-05-16T15:14:17.421Z,19.18
2019-05-16T15:16:52.035Z,19.09
2019-05-16T15:19:24.456Z,19.13
2019-05-16T15:21:57.540Z,19.24
2019-05-16T15:24:30.420Z,18.90
2019-05-16T15:27:03.647Z,19.03
2019-05-16T15:29:37.737Z,18.99
2019-05-16T15:32:10.525Z,18.91
2019-05-16T15:34:43.413Z,18.91
2019-05-16T15:37:17.119Z,18.57
2019-05-16T15:39:53.707Z,18.90
2019-05-16T15:42:27.721Z,18.73
2019-05-16T15:45:00.049Z,18.81
2019-05-16T15:47:33.073Z,18.59
2019-05-16T15:50:13.587Z,18.59
2019-05-16T15:52:47.808Z,18.73
2019-05-16T15:55:21.346Z,18.79
2019-05-16T15:57:54.091Z,18.57
2019-05-16T16:00:47.803Z,18.03
2019-05-16T16:03:21.702Z,18.30
2019-05-16T16:05:54.433Z,18.39
2019-05-16T16:08:28.247Z,18.56
2019-05-16T16:11:01.456Z,18.47
2019-05-16T16:13:34.269Z,18.45
2019-05-16T16:16:11.021Z,18.40
2019-05-16T16:18:43.619Z,18.37
2019-05-16T16:21:16.784Z,18.45
2019-05-16T16:23:49.472Z,18.23
2019-05-16T16:26:22.333Z,18.03
2019-05-16T16:28:54.833Z,17.96
2019-05-16T16:31:27.766Z,17.96
2019-05-16T16:34:02.715Z,17.87
2019-05-16T16:36:36.737Z,17.74
2019-05-16T16:39:08.977Z,17.39
2019-05-16T16:41:42.430Z,17.17
2019-05-16T16:44:17.376Z,17.17
2019-05-16T16:46:50.743Z,17.23
2019-05-16T16:49:23.536Z,17.25
2019-05-16T16:51:57.307Z,17.07
2019-05-16T16:54:30.304Z,17.04
2019-05-16T16:57:02.767Z,16.85
2019-05-16T16:59:36.906Z,16.85
2019-05-16T17:02:10.382Z,16.77
2019-05-16T17:04:42.974Z,16.77
2019-05-16T17:07:16.767Z,16.68
2019-05-16T17:09:50.468Z,16.56
2019-05-16T17:12:23.413Z,16.60
2019-05-16T17:14:56.976Z,16.48
2019-05-16T17:17:29.816Z,15.97
2019-05-16T17:20:02.633Z,15.97
2019-05-16T17:22:37.426Z,15.97
2019-05-16T17:25:13.368Z,15.97
2019-05-16T17:27:46.804Z,15.91
2019-05-16T17:30:22.370Z,15.94
2019-05-16T17:32:56.643Z,15.97
2019-05-16T17:35:28.594Z,15.86
2019-05-16T17:40:18.528Z,15.66
2019-05-16T17:42:51.308Z,15.71
2019-05-16T17:45:26.686Z,15.72
2019-05-16T17:47:59.344Z,15.72
2019-05-16T17:50:31.983Z,15.51
2019-05-16T17:53:06.819Z,15.51
2019-05-16T17:55:41.526Z,15.57
2019-05-16T17:58:16.276Z,15.59
2019-05-16T18:00:48.499Z,15.54
2019-05-16T18:03:22.761Z,15.35
2019-05-16T18:05:56.757Z,15.32
2019-05-16T18:08:29.616Z,15.33
2019-05-16T18:11:02.589Z,15.28
2019-05-16T18:13:37.077Z,15.27
2019-05-16T18:18:51.073Z,15.23
2019-05-16T18:21:23.521Z,15.14
2019-05-16T18:23:56.299Z,15.10
2019-05-16T18:26:29.104Z,15.06
2019-05-16T18:29:01.660Z,15.06
2019-05-16T18:31:34.328Z,15.16
2019-05-16T18:34:07.507Z,15.10
2019-05-16T18:36:41.760Z,15.10
2019-05-16T18:39:14.723Z,15.02
2019-05-16T18:41:49.916Z,14.99
2019-05-16T18:44:39.768Z,15.00
2019-05-16T18:47:11.365Z,14.90
2019-05-16T18:49:42.329Z,14.85
2019-05-16T18:52:17.342Z,14.79
2019-05-16T18:54:50.444Z,14.70
2019-05-16T18:57:23.313Z,14.68
2019-05-16T18:59:56.797Z,14.61
2019-05-16T19:02:29.489Z,14.61
2019-05-16T19:05:02.324Z,14.56
2019-05-16T19:07:36.900Z,14.50
2019-05-16T19:10:11.526Z,14.34
2019-05-16T19:12:44.023Z,14.34
2019-05-16T19:15:17.982Z,14.34
2019-05-16T19:17:50.716Z,14.34
2019-05-16T19:20:26.038Z,14.28
2019-05-16T19:22:59.067Z,14.25
2019-05-16T19:25:32.323Z,14.15
2019-05-16T19:28:06.811Z,14.02
2019-05-16T19:30:39.544Z,14.02
2019-05-16T19:36:13.400Z,14.03
2019-05-16T19:38:46.651Z,14.00
2019-05-16T19:43:57.183Z,13.94
2019-05-16T19:46:29.783Z,13.76
2019-05-16T19:49:02.449Z,13.76
2019-05-16T19:51:36.244Z,13.86
2019-05-16T19:54:11.277Z,13.80
2019-05-16T19:56:43.790Z,13.78
2019-05-16T19:59:16.886Z,13.78
2019-05-16T20:01:49.576Z,13.80
2019-05-16T20:04:22.540Z,13.81
2019-05-16T20:08:58.509Z,13.76
2019-05-16T20:11:30.803Z,13.73
2019-05-16T20:14:03.474Z,13.71
2019-05-16T20:16:36.745Z,13.70
2019-05-16T20:19:10.057Z,13.69
2019-05-16T20:21:42.897Z,13.66
2019-05-16T20:24:17.057Z,13.66
2019-05-16T20:26:50.373Z,13.63
2019-05-16T20:29:23.304Z,13.62
2019-05-16T20:31:59.558Z,13.48
2019-05-16T20:34:32.344Z,13.48
2019-05-16T20:37:06.176Z,13.47
2019-05-16T20:41:19.532Z,13.35
2019-05-16T20:43:57.210Z,13.24
2019-05-16T20:46:34.391Z,13.12
2019-05-16T20:49:07.822Z,12.99
2019-05-16T20:51:42.399Z,12.87
2019-05-16T20:54:17.514Z,12.77
2019-05-16T20:56:50.054Z,12.72
2019-05-16T20:59:22.758Z,12.64
2019-05-16T21:01:58.515Z,12.54
2019-05-16T21:04:33.136Z,12.54
2019-05-16T21:07:12.969Z,12.43
2019-05-16T21:09:54.376Z,12.40
2019-05-16T21:12:28.805Z,12.34
2019-05-16T21:15:01.414Z,12.34
2019-05-16T21:17:35.314Z,12.26
2019-05-16T21:20:09.550Z,12.28
2019-05-16T21:22:47.134Z,12.16
2019-05-16T21:25:20.569Z,12.17
2019-05-16T21:27:53.542Z,12.14
2019-05-16T21:30:27.378Z,12.15
2019-05-16T21:33:00.494Z,12.15
2019-05-16T21:35:36.462Z,12.16
2019-05-16T21:38:09.406Z,12.17
2019-05-16T21:40:42.840Z,12.15
2019-05-16T21:46:28.348Z,12.09
2019-05-16T21:49:00.814Z,11.83
2019-05-16T21:51:33.448Z,11.83
2019-05-16T21:54:07.166Z,11.78
2019-05-16T21:56:39.943Z,11.70
2019-05-16T21:59:14.294Z,11.60
2019-05-16T22:01:47.431Z,11.29
2019-05-16T22:04:26.348Z,11.29
2019-05-16T22:07:00.843Z,11.11
2019-05-16T22:09:33.438Z,10.97
2019-05-16T22:12:06.735Z,10.83
2019-05-16T22:14:51.849Z,10.74
2019-05-16T22:17:24.858Z,10.67
2019-05-16T22:19:57.466Z,10.55
2019-05-16T22:22:30.305Z,10.52
2019-05-16T22:25:02.400Z,10.34
2019-05-16T22:27:35.387Z,10.23
2019-05-16T22:30:16.653Z,9.94
2019-05-16T22:32:50.540Z,9.94
2019-05-16T22:35:23.562Z,10.05
2019-05-16T22:37:59.441Z,10.01
2019-05-16T22:40:33.255Z,9.91
2019-05-16T22:43:10.141Z,9.80
2019-05-16T22:45:43.443Z,9.77
2019-05-16T22:48:17.259Z,9.73
2019-05-16T22:50:50.307Z,9.68
2019-05-16T22:53:23.047Z,9.47
2019-05-16T22:55:56.654Z,9.47
2019-05-16T22:58:29.977Z,9.40
2019-05-16T23:01:02.659Z,9.33
2019-05-16T23:03:37.791Z,9.23
2019-05-16T23:06:09.803Z,9.06
2019-05-16T23:08:43.304Z,9.06
2019-05-16T23:11:16.335Z,8.94
2019-05-16T23:13:49.292Z,8.94
2019-05-16T23:16:21.279Z,8.87
2019-05-16T23:18:54.344Z,8.83
2019-05-16T23:21:27.756Z,8.81
2019-05-16T23:24:00.303Z,8.75
2019-05-16T23:26:33.049Z,8.49
2019-05-16T23:29:06.996Z,8.49
2019-05-16T23:31:41.038Z,8.60
2019-05-16T23:34:13.493Z,8.51
2019-05-16T23:36:46.214Z,8.43
2019-05-16T23:39:21.445Z,8.40
2019-05-16T23:41:56.926Z,8.39
2019-05-16T23:44:29.800Z,8.35
2019-05-16T23:47:02.351Z,8.36
2019-05-16T23:49:36.693Z,8.34
2019-05-16T23:52:13.720Z,8.32
2019-05-16T23:54:51.521Z,8.23
2019-05-16T23:57:23.648Z,8.20
2019-05-16T23:59:56.761Z,8.13
